sensor_id;sensor_type;location;lat;lon;timestamp;pressure;altitude;pressure_sealevel;temperature;humidity
9325;BME280;4701;51.566;6.776;2023-03-24T07:03:43;99839.41;;;10.48;84.91
9325;BME280;4701;51.566;6.776;2023-03-24T07:07:11;99866.63;;;10.53;85.16
9325;BME280;4701;51.566;6.776;2023-03-24T07:10:15;99836.56;;;10.58;85.66
9325;BME280;4701;51.566;6.776;2023-03-24T07:13:18;99835.41;;;10.64;85.16
9325;BME280;4701;51.566;6.776;2023-03-24T07:16:20;99840.00;;;10.69;85.16
9325;BME280;4701;51.566;6.776;2023-03-24T07:19:32;99843.47;;;10.74;84.69
9325;BME280;4701;51.566;6.776;2023-03-24T07:23:13;99843.94;;;10.81;84.39
9325;BME280;4701;51.566;6.776;2023-03-24T07:26:27;99838.75;;;10.85;83.28
9325;BME280;4701;51.566;6.776;2023-03-24T07:29:39;99850.38;;;10.90;82.75
9325;BME280;4701;51.566;6.776;2023-03-24T07:32:51;99837.53;;;10.96;81.86
9325;BME280;4701;51.566;6.776;2023-03-24T07:35:57;99836.94;;;10.99;81.64
9325;BME280;4701;51.566;6.776;2023-03-24T07:39:00;99834.44;;;11.03;81.69
9325;BME280;4701;51.566;6.776;2023-03-24T07:42:07;99838.78;;;11.04;81.30
9325;BME280;4701;51.566;6.776;2023-03-24T07:45:27;99857.81;;;11.09;81.25
9325;BME280;4701;51.566;6.776;2023-03-24T07:48:30;99852.88;;;11.11;80.79
9325;BME280;4701;51.566;6.776;2023-03-24T07:51:33;99880.09;;;11.16;80.34
9325;BME280;4701;51.566;6.776;2023-03-24T07:54:48;99851.13;;;11.20;79.88
9325;BME280;4701;51.566;6.776;2023-03-24T07:58:13;99857.94;;;11.22;79.56
9325;BME280;4701;51.566;6.776;2023-03-24T08:01:27;99865.22;;;11.27;79.46
9325;BME280;4701;51.566;6.776;2023-03-24T08:04:33;99876.38;;;11.30;78.92
9325;BME280;4701;51.566;6.776;2023-03-24T08:07:45;99881.22;;;11.33;78.78
9325;BME280;4701;51.566;6.776;2023-03-24T08:10:49;99897.03;;;11.36;78.56
9325;BME280;4701;51.566;6.776;2023-03-24T08:13:51;99887.94;;;11.41;78.29
9325;BME280;4701;51.566;6.776;2023-03-24T08:16:53;99882.72;;;11.45;77.55
9325;BME280;4701;51.566;6.776;2023-03-24T08:19:55;99910.25;;;11.48;77.18
9325;BME280;4701;51.566;6.776;2023-03-24T08:22:58;99896.81;;;11.52;76.25
9325;BME280;4701;51.566;6.776;2023-03-24T08:26:04;99899.25;;;11.53;76.29
9325;BME280;4701;51.566;6.776;2023-03-24T08:29:06;99907.97;;;11.55;76.29
9325;BME280;4701;51.566;6.776;2023-03-24T08:32:08;99901.91;;;11.58;76.41
9325;BME280;4701;51.566;6.776;2023-03-24T08:35:11;99914.47;;;11.59;76.65
9325;BME280;4701;51.566;6.776;2023-03-24T08:38:15;99904.06;;;11.61;76.63
9325;BME280;4701;51.566;6.776;2023-03-24T08:41:17;99912.16;;;11.66;76.85
9325;BME280;4701;51.566;6.776;2023-03-24T08:44:19;99906.13;;;11.69;76.88
9325;BME280;4701;51.566;6.776;2023-03-24T08:47:21;99904.47;;;11.73;77.01
9325;BME280;4701;51.566;6.776;2023-03-24T08:50:25;99928.16;;;11.78;77.10
9325;BME280;4701;51.566;6.776;2023-03-24T08:53:29;99909.78;;;11.84;77.06
9325;BME280;4701;51.566;6.776;2023-03-24T08:56:30;99924.47;;;11.88;76.53
9325;BME280;4701;51.566;6.776;2023-03-24T08:59:32;99918.72;;;11.89;76.32
9325;BME280;4701;51.566;6.776;2023-03-24T09:02:34;99934.22;;;11.94;75.73
9325;BME280;4701;51.566;6.776;2023-03-24T09:05:36;99934.75;;;11.96;75.56
9325;BME280;4701;51.566;6.776;2023-03-24T09:08:39;99932.22;;;11.99;75.20
9325;BME280;4701;51.566;6.776;2023-03-24T09:11:41;99943.38;;;12.03;75.49
9325;BME280;4701;51.566;6.776;2023-03-24T09:14:47;99943.59;;;12.06;74.52
9325;BME280;4701;51.566;6.776;2023-03-24T09:17:49;99923.06;;;12.09;74.50
9325;BME280;4701;51.566;6.776;2023-03-24T09:20:51;99921.66;;;12.11;74.56
9325;BME280;4701;51.566;6.776;2023-03-24T09:23:54;99924.91;;;12.13;74.35
9325;BME280;4701;51.566;6.776;2023-03-24T09:26:56;99936.03;;;12.17;74.46
9325;BME280;4701;51.566;6.776;2023-03-24T09:29:57;99944.47;;;12.21;74.49
9325;BME280;4701;51.566;6.776;2023-03-24T09:32:59;99945.28;;;12.21;74.42
9325;BME280;4701;51.566;6.776;2023-03-24T09:36:02;99924.75;;;12.24;74.59
9325;BME280;4701;51.566;6.776;2023-03-24T09:39:05;99929.63;;;12.27;74.34
9325;BME280;4701;51.566;6.776;2023-03-24T09:42:21;99928.50;;;12.28;74.54
9325;BME280;4701;51.566;6.776;2023-03-24T09:45:32;99940.78;;;12.30;74.35
9325;BME280;4701;51.566;6.776;2023-03-24T09:48:41;99948.69;;;12.32;73.76
9325;BME280;4701;51.566;6.776;2023-03-24T09:51:45;99942.94;;;12.33;73.94
9325;BME280;4701;51.566;6.776;2023-03-24T09:54:52;99954.34;;;12.35;73.56
9325;BME280;4701;51.566;6.776;2023-03-24T09:57:57;99945.56;;;12.38;72.22
9325;BME280;4701;51.566;6.776;2023-03-24T10:01:04;99957.84;;;12.41;72.28
9325;BME280;4701;51.566;6.776;2023-03-24T10:04:13;99940.31;;;12.42;72.08
9325;BME280;4701;51.566;6.776;2023-03-24T10:07:20;99946.00;;;12.45;72.35
9325;BME280;4701;51.566;6.776;2023-03-24T10:10:32;99949.25;;;12.47;72.42
9325;BME280;4701;51.566;6.776;2023-03-24T10:13:43;99955.22;;;12.49;72.45
9325;BME280;4701;51.566;6.776;2023-03-24T10:16:53;99972.13;;;12.51;72.04
9325;BME280;4701;51.566;6.776;2023-03-24T10:20:02;99977.28;;;12.53;71.59
9325;BME280;4701;51.566;6.776;2023-03-24T10:23:16;99965.78;;;12.56;72.07
9325;BME280;4701;51.566;6.776;2023-03-24T10:26:32;99990.09;;;12.58;71.27
9325;BME280;4701;51.566;6.776;2023-03-24T10:29:35;99973.69;;;12.58;70.66
9325;BME280;4701;51.566;6.776;2023-03-24T10:32:38;99973.38;;;12.59;70.61
9325;BME280;4701;51.566;6.776;2023-03-24T10:35:45;99996.38;;;12.58;70.44
9325;BME280;4701;51.566;6.776;2023-03-24T10:38:48;99970.97;;;12.58;69.51
9325;BME280;4701;51.566;6.776;2023-03-24T10:41:53;99969.03;;;12.58;69.68
9325;BME280;4701;51.566;6.776;2023-03-24T10:44:55;99987.84;;;12.60;69.57
9325;BME280;4701;51.566;6.776;2023-03-24T10:47:59;100003.97;;;12.61;70.09
9325;BME280;4701;51.566;6.776;2023-03-24T10:51:01;99995.75;;;12.61;69.29
9325;BME280;4701;51.566;6.776;2023-03-24T10:54:10;99987.56;;;12.61;69.69
9325;BME280;4701;51.566;6.776;2023-03-24T10:57:16;99994.66;;;12.62;69.68
9325;BME280;4701;51.566;6.776;2023-03-24T11:00:21;99991.91;;;12.62;69.72
9325;BME280;4701;51.566;6.776;2023-03-24T11:03:28;100018.97;;;12.64;68.99
9325;BME280;4701;51.566;6.776;2023-03-24T11:06:31;99989.41;;;12.66;67.94
9325;BME280;4701;51.566;6.776;2023-03-24T11:09:40;99999.25;;;12.67;68.47
9325;BME280;4701;51.566;6.776;2023-03-24T11:12:58;99992.34;;;12.69;68.67
9325;BME280;4701;51.566;6.776;2023-03-24T11:16:10;99990.13;;;12.71;68.66
9325;BME280;4701;51.566;6.776;2023-03-24T11:19:18;99989.53;;;12.74;68.73
9325;BME280;4701;51.566;6.776;2023-03-24T11:22:20;100003.41;;;12.78;69.08
9325;BME280;4701;51.566;6.776;2023-03-24T11:25:25;99985.31;;;12.82;68.92
9325;BME280;4701;51.566;6.776;2023-03-24T11:28:29;99989.88;;;12.86;68.76
9325;BME280;4701;51.566;6.776;2023-03-24T11:31:37;99996.38;;;12.91;68.87
9325;BME280;4701;51.566;6.776;2023-03-24T11:34:43;99982.88;;;12.94;68.86
9325;BME280;4701;51.566;6.776;2023-03-24T11:37:48;99995.16;;;12.97;68.89
9325;BME280;4701;51.566;6.776;2023-03-24T11:40:55;99997.00;;;13.01;68.43
9325;BME280;4701;51.566;6.776;2023-03-24T11:44:15;100002.69;;;13.05;67.83
9325;BME280;4701;51.566;6.776;2023-03-24T11:47:23;100002.69;;;13.05;66.89
9325;BME280;4701;51.566;6.776;2023-03-24T11:50:32;100014.13;;;13.07;66.45
9325;BME280;4701;51.566;6.776;2023-03-24T11:53:39;100014.13;;;13.07;66.35
9325;BME280;4701;51.566;6.776;2023-03-24T11:56:45;100009.19;;;13.09;66.29
9325;BME280;4701;51.566;6.776;2023-03-24T11:59:53;100008.06;;;13.10;66.35
9325;BME280;4701;51.566;6.776;2023-03-24T12:03:10;99997.13;;;13.10;67.14
9325;BME280;4701;51.566;6.776;2023-03-24T12:06:26;99995.13;;;13.15;66.40
9325;BME280;4701;51.566;6.776;2023-03-24T12:09:34;100002.44;;;13.20;66.42
9325;BME280;4701;51.566;6.776;2023-03-24T12:12:43;99999.31;;;13.27;65.84
9325;BME280;4701;51.566;6.776;2023-03-24T12:16:02;99993.75;;;13.32;65.88
9325;BME280;4701;51.566;6.776;2023-03-24T12:19:33;100002.94;;;13.36;66.03
9325;BME280;4701;51.566;6.776;2023-03-24T12:22:47;99998.09;;;13.46;65.52
9325;BME280;4701;51.566;6.776;2023-03-24T12:26:17;99991.44;;;13.52;65.02
9325;BME280;4701;51.566;6.776;2023-03-24T12:29:36;99982.59;;;13.55;65.11
9325;BME280;4701;51.566;6.776;2023-03-24T12:32:46;99988.47;;;13.62;65.56
9325;BME280;4701;51.566;6.776;2023-03-24T12:36:03;99961.97;;;13.72;65.57
9325;BME280;4701;51.566;6.776;2023-03-24T12:39:09;99967.03;;;13.78;65.52
9325;BME280;4701;51.566;6.776;2023-03-24T12:42:12;99965.84;;;13.84;65.48
9325;BME280;4701;51.566;6.776;2023-03-24T12:45:22;99962.06;;;13.94;65.72
9325;BME280;4701;51.566;6.776;2023-03-24T12:48:52;99959.91;;;14.05;64.66
9325;BME280;4701;51.566;6.776;2023-03-24T12:52:12;99960.31;;;14.12;64.36
9325;BME280;4701;51.566;6.776;2023-03-24T12:55:24;99955.81;;;14.16;64.03
9325;BME280;4701;51.566;6.776;2023-03-24T12:58:37;99950.84;;;14.18;63.75
9325;BME280;4701;51.566;6.776;2023-03-24T13:01:51;99950.19;;;14.21;63.17
9325;BME280;4701;51.566;6.776;2023-03-24T13:04:59;99957.00;;;14.23;62.95
9325;BME280;4701;51.566;6.776;2023-03-24T13:08:10;99946.34;;;14.22;60.75
9325;BME280;4701;51.566;6.776;2023-03-24T13:11:19;99962.31;;;14.20;60.75
9325;BME280;4701;51.566;6.776;2023-03-24T13:14:47;99954.19;;;14.15;60.20
9325;BME280;4701;51.566;6.776;2023-03-24T13:17:53;99936.13;;;14.14;60.74
9325;BME280;4701;51.566;6.776;2023-03-24T13:21:03;99937.75;;;14.15;60.63
9325;BME280;4701;51.566;6.776;2023-03-24T13:24:10;99934.41;;;14.18;60.31
9325;BME280;4701;51.566;6.776;2023-03-24T13:27:15;99958.41;;;14.21;59.55
9325;BME280;4701;51.566;6.776;2023-03-24T13:30:27;99936.50;;;14.21;60.17
9325;BME280;4701;51.566;6.776;2023-03-24T13:33:33;99949.91;;;14.22;59.88
9325;BME280;4701;51.566;6.776;2023-03-24T13:36:43;99952.94;;;14.21;60.63
9325;BME280;4701;51.566;6.776;2023-03-24T13:39:49;99972.94;;;14.21;61.25
9325;BME280;4701;51.566;6.776;2023-03-24T13:42:55;99980.47;;;14.16;61.37
9325;BME280;4701;51.566;6.776;2023-03-24T13:45:59;100010.09;;;14.14;61.52
9325;BME280;4701;51.566;6.776;2023-03-24T13:49:10;100000.59;;;14.11;61.71
9325;BME280;4701;51.566;6.776;2023-03-24T13:52:27;100014.69;;;14.05;63.31
9325;BME280;4701;51.566;6.776;2023-03-24T13:55:34;100004.16;;;13.98;63.77
9325;BME280;4701;51.566;6.776;2023-03-24T13:58:49;100003.97;;;13.94;64.33
9325;BME280;4701;51.566;6.776;2023-03-24T14:02:40;100011.06;;;13.82;64.72
9325;BME280;4701;51.566;6.776;2023-03-24T14:06:01;100017.47;;;13.63;65.63
9325;BME280;4701;51.566;6.776;2023-03-24T14:09:14;100025.06;;;13.53;66.23
9325;BME280;4701;51.566;6.776;2023-03-24T14:12:19;100030.25;;;13.41;67.42
9325;BME280;4701;51.566;6.776;2023-03-24T14:15:25;100028.28;;;13.27;69.08
9325;BME280;4701;51.566;6.776;2023-03-24T14:18:41;100033.75;;;13.14;70.24
9325;BME280;4701;51.566;6.776;2023-03-24T14:21:43;100017.28;;;13.00;71.08
9325;BME280;4701;51.566;6.776;2023-03-24T14:24:58;99995.34;;;12.86;72.06
9325;BME280;4701;51.566;6.776;2023-03-24T14:28:18;99970.41;;;12.74;72.96
9325;BME280;4701;51.566;6.776;2023-03-24T14:31:23;99979.56;;;12.65;73.41
9325;BME280;4701;51.566;6.776;2023-03-24T14:34:28;99972.06;;;12.57;73.85
9325;BME280;4701;51.566;6.776;2023-03-24T14:37:31;99973.75;;;12.52;74.36
9325;BME280;4701;51.566;6.776;2023-03-24T14:40:36;99974.38;;;12.49;75.11
9325;BME280;4701;51.566;6.776;2023-03-24T14:43:56;99978.50;;;12.47;75.46
9325;BME280;4701;51.566;6.776;2023-03-24T14:46:59;99970.88;;;12.44;75.71
9325;BME280;4701;51.566;6.776;2023-03-24T14:50:11;99978.56;;;12.42;75.96
9325;BME280;4701;51.566;6.776;2023-03-24T14:53:17;99990.91;;;12.39;76.26
9325;BME280;4701;51.566;6.776;2023-03-24T14:56:21;99984.13;;;12.37;76.66
9325;BME280;4701;51.566;6.776;2023-03-24T14:59:34;99990.97;;;12.34;76.68
9325;BME280;4701;51.566;6.776;2023-03-24T15:02:40;99984.22;;;12.32;76.96
9325;BME280;4701;51.566;6.776;2023-03-24T15:05:42;99986.41;;;12.30;77.09
9325;BME280;4701;51.566;6.776;2023-03-24T15:08:48;99983.16;;;12.28;77.22
9325;BME280;4701;51.566;6.776;2023-03-24T15:11:59;99996.00;;;12.27;77.43
9325;BME280;4701;51.566;6.776;2023-03-24T15:15:01;99994.69;;;12.25;77.69
9325;BME280;4701;51.566;6.776;2023-03-24T15:18:03;99989.53;;;12.23;77.73
9325;BME280;4701;51.566;6.776;2023-03-24T15:21:13;99991.72;;;12.21;78.01
9325;BME280;4701;51.566;6.776;2023-03-24T15:24:28;99990.41;;;12.19;78.02
9325;BME280;4701;51.566;6.776;2023-03-24T15:27:31;99982.19;;;12.19;77.95
9325;BME280;4701;51.566;6.776;2023-03-24T15:30:33;99979.75;;;12.17;78.10
9325;BME280;4701;51.566;6.776;2023-03-24T15:33:39;99977.63;;;12.14;78.03
9325;BME280;4701;51.566;6.776;2023-03-24T15:36:41;99995.13;;;12.13;77.93
9325;BME280;4701;51.566;6.776;2023-03-24T15:39:48;99997.88;;;12.13;78.08
9325;BME280;4701;51.566;6.776;2023-03-24T15:42:52;99972.47;;;12.12;78.23
9325;BME280;4701;51.566;6.776;2023-03-24T15:45:57;99974.38;;;12.12;78.62
9325;BME280;4701;51.566;6.776;2023-03-24T15:49:02;99963.44;;;12.12;78.83
9325;BME280;4701;51.566;6.776;2023-03-24T15:52:23;99960.72;;;12.12;79.20
9325;BME280;4701;51.566;6.776;2023-03-24T15:55:27;99967.00;;;12.12;79.35
9325;BME280;4701;51.566;6.776;2023-03-24T15:58:45;99975.19;;;12.12;79.61
9325;BME280;4701;51.566;6.776;2023-03-24T16:01:47;99954.16;;;12.13;80.03
9325;BME280;4701;51.566;6.776;2023-03-24T16:04:49;99965.09;;;12.13;79.77
9325;BME280;4701;51.566;6.776;2023-03-24T16:07:56;99960.44;;;12.13;80.23
9325;BME280;4701;51.566;6.776;2023-03-24T16:11:00;99963.69;;;12.16;80.16
9325;BME280;4701;51.566;6.776;2023-03-24T16:14:18;99949.72;;;12.17;80.07
9325;BME280;4701;51.566;6.776;2023-03-24T16:17:21;99946.69;;;12.19;80.08
9325;BME280;4701;51.566;6.776;2023-03-24T16:20:23;99950.75;;;12.21;80.28
9325;BME280;4701;51.566;6.776;2023-03-24T16:23:25;99948.53;;;12.23;80.10
9325;BME280;4701;51.566;6.776;2023-03-24T16:26:28;99952.59;;;12.26;80.28
9325;BME280;4701;51.566;6.776;2023-03-24T16:29:31;99940.53;;;12.27;79.71
9325;BME280;4701;51.566;6.776;2023-03-24T16:32:33;99937.00;;;12.26;79.68
9325;BME280;4701;51.566;6.776;2023-03-24T16:35:35;99940.25;;;12.28;79.10
9325;BME280;4701;51.566;6.776;2023-03-24T16:38:38;99932.06;;;12.28;79.01
9325;BME280;4701;51.566;6.776;2023-03-24T16:41:40;99926.31;;;12.30;78.87
9325;BME280;4701;51.566;6.776;2023-03-24T16:44:43;99940.69;;;12.35;78.81
9325;BME280;4701;51.566;6.776;2023-03-24T16:47:45;99936.03;;;12.36;78.41
9325;BME280;4701;51.566;6.776;2023-03-24T16:50:49;99944.16;;;12.41;78.33
9325;BME280;4701;51.566;6.776;2023-03-24T16:53:52;99941.09;;;12.42;77.83
9325;BME280;4701;51.566;6.776;2023-03-24T16:56:54;99955.81;;;12.46;77.28
9325;BME280;4701;51.566;6.776;2023-03-24T16:59:58;99960.19;;;12.47;76.42
9325;BME280;4701;51.566;6.776;2023-03-24T17:03:01;99958.25;;;12.48;75.79
9325;BME280;4701;51.566;6.776;2023-03-24T17:06:04;99953.09;;;12.46;74.98
9325;BME280;4701;51.566;6.776;2023-03-24T17:09:06;99952.28;;;12.46;74.49
9325;BME280;4701;51.566;6.776;2023-03-24T17:12:09;99946.28;;;12.44;74.16
9325;BME280;4701;51.566;6.776;2023-03-24T17:15:17;99960.75;;;12.44;73.80
9325;BME280;4701;51.566;6.776;2023-03-24T17:18:20;99949.03;;;12.44;73.62
9325;BME280;4701;51.566;6.776;2023-03-24T17:21:31;99948.81;;;12.40;73.56
9325;BME280;4701;51.566;6.776;2023-03-24T17:24:38;99942.31;;;12.36;73.91
9325;BME280;4701;51.566;6.776;2023-03-24T17:27:57;99952.22;;;12.32;74.21
9325;BME280;4701;51.566;6.776;2023-03-24T17:34:45;99944.09;;;12.27;74.15
9325;BME280;4701;51.566;6.776;2023-03-24T17:37:50;99964.94;;;12.23;74.11
9325;BME280;4701;51.566;6.776;2023-03-24T17:41:09;99962.25;;;12.18;73.92
9325;BME280;4701;51.566;6.776;2023-03-24T17:44:41;99956.06;;;12.12;74.00
9325;BME280;4701;51.566;6.776;2023-03-24T17:47:50;99962.41;;;12.08;73.82
9325;BME280;4701;51.566;6.776;2023-03-24T17:50:53;99970.69;;;12.03;74.10
9325;BME280;4701;51.566;6.776;2023-03-24T17:54:10;99964.50;;;11.97;74.16
9325;BME280;4701;51.566;6.776;2023-03-24T17:57:20;99964.78;;;11.96;74.01
9325;BME280;4701;51.566;6.776;2023-03-24T18:00:26;99961.00;;;11.92;74.34
9325;BME280;4701;51.566;6.776;2023-03-24T18:03:30;99958.88;;;11.89;74.59
9325;BME280;4701;51.566;6.776;2023-03-24T18:10:25;99954.88;;;11.81;74.52
9325;BME280;4701;51.566;6.776;2023-03-24T18:13:30;99963.66;;;11.78;74.83
9325;BME280;4701;51.566;6.776;2023-03-24T18:16:32;99962.31;;;11.75;75.05
9325;BME280;4701;51.566;6.776;2023-03-24T18:19:36;99976.53;;;11.72;74.94
9325;BME280;4701;51.566;6.776;2023-03-24T18:22:38;99963.19;;;11.71;75.22
9325;BME280;4701;51.566;6.776;2023-03-24T18:25:41;99961.84;;;11.68;75.67
9325;BME280;4701;51.566;6.776;2023-03-24T18:28:44;99962.72;;;11.64;75.82
9325;BME280;4701;51.566;6.776;2023-03-24T18:31:46;99956.75;;;11.62;76.22
9325;BME280;4701;51.566;6.776;2023-03-24T18:34:50;99962.47;;;11.60;76.25
9325;BME280;4701;51.566;6.776;2023-03-24T18:37:52;99951.56;;;11.60;76.74
9325;BME280;4701;51.566;6.776;2023-03-24T18:40:57;99959.22;;;11.58;76.82
9325;BME280;4701;51.566;6.776;2023-03-24T18:44:00;99960.31;;;11.57;77.01
9325;BME280;4701;51.566;6.776;2023-03-24T18:47:02;99954.09;;;11.57;77.28
9325;BME280;4701;51.566;6.776;2023-03-24T18:50:06;99951.66;;;11.55;77.39
9325;BME280;4701;51.566;6.776;2023-03-24T18:53:09;99950.84;;;11.55;77.51
9325;BME280;4701;51.566;6.776;2023-03-24T18:56:13;99939.91;;;11.55;77.64
9325;BME280;4701;51.566;6.776;2023-03-24T18:59:15;99944.84;;;11.53;77.83
9325;BME280;4701;51.566;6.776;2023-03-24T19:02:17;99952.22;;;11.52;77.90
9325;BME280;4701;51.566;6.776;2023-03-24T19:05:20;99944.03;;;11.52;78.01
9325;BME280;4701;51.566;6.776;2023-03-24T19:08:22;99944.56;;;11.54;78.11
9325;BME280;4701;51.566;6.776;2023-03-24T19:11:24;99955.75;;;11.53;78.25
9325;BME280;4701;51.566;6.776;2023-03-24T19:14:27;99947.56;;;11.53;78.50
9325;BME280;4701;51.566;6.776;2023-03-24T19:17:29;99941.00;;;11.54;78.15
9325;BME280;4701;51.566;6.776;2023-03-24T19:20:32;99944.03;;;11.52;78.39
9325;BME280;4701;51.566;6.776;2023-03-24T19:23:35;99941.31;;;11.52;78.47
9325;BME280;4701;51.566;6.776;2023-03-24T19:26:37;99941.81;;;11.54;78.17
9325;BME280;4701;51.566;6.776;2023-03-24T19:29:40;99939.91;;;11.55;77.94
9325;BME280;4701;51.566;6.776;2023-03-24T19:32:41;99956.28;;;11.55;77.99
9325;BME280;4701;51.566;6.776;2023-03-24T19:35:47;99944.56;;;11.54;78.34
9325;BME280;4701;51.566;6.776;2023-03-24T19:38:49;99948.91;;;11.55;78.52
9325;BME280;4701;51.566;6.776;2023-03-24T19:41:51;99942.84;;;11.58;78.70
9325;BME280;4701;51.566;6.776;2023-03-24T19:49:26;99952.13;;;11.57;78.18
9325;BME280;4701;51.566;6.776;2023-03-24T19:52:33;99959.84;;;11.55;78.23
9325;BME280;4701;51.566;6.776;2023-03-24T19:55:38;99941.81;;;11.54;78.39
9325;BME280;4701;51.566;6.776;2023-03-24T19:58:40;99942.63;;;11.55;78.00
9325;BME280;4701;51.566;6.776;2023-03-24T20:01:42;99948.38;;;11.53;77.64
9325;BME280;4701;51.566;6.776;2023-03-24T20:04:44;99949.50;;;11.52;77.78
9325;BME280;4701;51.566;6.776;2023-03-24T20:07:51;99953.31;;;11.51;77.88
9325;BME280;4701;51.566;6.776;2023-03-24T20:10:56;99949.78;;;11.51;78.05
9325;BME280;4701;51.566;6.776;2023-03-24T20:14:00;99955.03;;;11.47;77.81
9325;BME280;4701;51.566;6.776;2023-03-24T20:17:03;99948.75;;;11.47;77.72
9325;BME280;4701;51.566;6.776;2023-03-24T20:20:09;99948.75;;;11.47;77.84
9325;BME280;4701;51.566;6.776;2023-03-24T20:23:31;99947.13;;;11.46;77.51
9325;BME280;4701;51.566;6.776;2023-03-24T20:26:36;99948.50;;;11.43;77.83
9325;BME280;4701;51.566;6.776;2023-03-24T20:29:50;99949.06;;;11.40;77.90
9325;BME280;4701;51.566;6.776;2023-03-24T20:32:54;99945.84;;;11.38;77.88
9325;BME280;4701;51.566;6.776;2023-03-24T20:35:59;99955.41;;;11.35;77.45
9325;BME280;4701;51.566;6.776;2023-03-24T20:39:06;99931.44;;;11.32;77.33
9325;BME280;4701;51.566;6.776;2023-03-24T20:42:10;99942.34;;;11.32;77.01
9325;BME280;4701;51.566;6.776;2023-03-24T20:45:17;99938.31;;;11.30;77.10
9325;BME280;4701;51.566;6.776;2023-03-24T20:48:26;99941.31;;;11.28;77.13
9325;BME280;4701;51.566;6.776;2023-03-24T20:51:30;99925.81;;;11.24;77.06
9325;BME280;4701;51.566;6.776;2023-03-24T20:54:38;99938.13;;;11.21;76.83
9325;BME280;4701;51.566;6.776;2023-03-24T20:57:40;99924.78;;;11.20;76.77
